sensor_id;sensor_type;location;lat;lon;timestamp;pressure;altitude;pressure_sealevel;temperature;humidity
47706;BME280;33471;52.104;1.318;2022-11-28T00:00:56;100452.64;;;15.01;48.77
47706;BME280;33471;52.104;1.318;2022-11-28T00:03:23;100451.15;;;15.04;48.85
47706;BME280;33471;52.104;1.318;2022-11-28T00:05:51;100452.15;;;14.95;48.74
47706;BME280;33471;52.104;1.318;2022-11-28T00:08:19;100448.91;;;14.77;49.40
47706;BME280;33471;52.104;1.318;2022-11-28T00:10:46;100446.44;;;15.34;48.61
47706;BME280;33471;52.104;1.318;2022-11-28T00:13:14;100445.35;;;14.98;48.80
47706;BME280;33471;52.104;1.318;2022-11-28T00:15:41;100450.80;;;15.21;48.63
47706;BME280;33471;52.104;1.318;2022-11-28T00:18:08;100450.76;;;14.02;49.79
47706;BME280;33471;52.104;1.318;2022-11-28T00:20:36;100448.01;;;14.69;49.06
47706;BME280;33471;52.104;1.318;2022-11-28T00:23:03;100453.06;;;14.19;49.30
47706;BME280;33471;52.104;1.318;2022-11-28T00:25:30;100454.69;;;14.52;49.83
47706;BME280;33471;52.104;1.318;2022-11-28T00:27:58;100448.18;;;14.68;48.93
47706;BME280;33471;52.104;1.318;2022-11-28T00:30:26;100443.28;;;15.08;49.20
47706;BME280;33471;52.104;1.318;2022-11-28T00:32:54;100440.48;;;14.96;49.07
47706;BME280;33471;52.104;1.318;2022-11-28T00:35:21;100439.79;;;14.74;49.78
47706;BME280;33471;52.104;1.318;2022-11-28T00:37:48;100440.31;;;15.01;49.28
47706;BME280;33471;52.104;1.318;2022-11-28T00:40:16;100443.45;;;14.93;49.38
47706;BME280;33471;52.104;1.318;2022-11-28T00:42:43;100440.20;;;14.97;48.87
47706;BME280;33471;52.104;1.318;2022-11-28T00:45:11;100444.56;;;15.17;48.78
47706;BME280;33471;52.104;1.318;2022-11-28T00:47:38;100445.66;;;15.43;49.16
47706;BME280;33471;52.104;1.318;2022-11-28T00:50:07;100448.40;;;13.35;51.54
47706;BME280;33471;52.104;1.318;2022-11-28T00:52:34;100447.39;;;14.45;51.21
47706;BME280;33471;52.104;1.318;2022-11-28T00:55:02;100454.29;;;12.93;52.50
47706;BME280;33471;52.104;1.318;2022-11-28T00:57:29;100457.91;;;12.62;54.58
47706;BME280;33471;52.104;1.318;2022-11-28T00:59:57;100454.88;;;12.79;53.40
47706;BME280;33471;52.104;1.318;2022-11-28T01:02:25;100455.08;;;12.76;54.12
47706;BME280;33471;52.104;1.318;2022-11-28T01:04:52;100457.81;;;13.21;54.03
47706;BME280;33471;52.104;1.318;2022-11-28T01:07:20;100456.69;;;12.46;54.88
47706;BME280;33471;52.104;1.318;2022-11-28T01:09:47;100455.32;;;13.23;53.87
47706;BME280;33471;52.104;1.318;2022-11-28T01:12:14;100459.61;;;13.04;53.45
47706;BME280;33471;52.104;1.318;2022-11-28T01:14:41;100459.72;;;13.10;54.11
47706;BME280;33471;52.104;1.318;2022-11-28T01:17:09;100463.03;;;12.51;54.13
47706;BME280;33471;52.104;1.318;2022-11-28T01:19:38;100461.28;;;11.57;55.61
47706;BME280;33471;52.104;1.318;2022-11-28T01:22:06;100458.58;;;12.65;51.85
47706;BME280;33471;52.104;1.318;2022-11-28T01:24:33;100461.51;;;13.13;51.56
47706;BME280;33471;52.104;1.318;2022-11-28T01:27:00;100458.01;;;11.93;55.75
47706;BME280;33471;52.104;1.318;2022-11-28T01:29:27;100449.52;;;11.70;55.53
47706;BME280;33471;52.104;1.318;2022-11-28T01:31:55;100449.08;;;11.97;55.03
47706;BME280;33471;52.104;1.318;2022-11-28T01:34:22;100450.50;;;11.12;56.23
47706;BME280;33471;52.104;1.318;2022-11-28T01:36:49;100449.97;;;12.61;54.00
47706;BME280;33471;52.104;1.318;2022-11-28T01:39:16;100446.98;;;13.33;51.71
47706;BME280;33471;52.104;1.318;2022-11-28T01:41:43;100440.40;;;14.07;50.67
47706;BME280;33471;52.104;1.318;2022-11-28T01:45:05;100437.95;;;12.32;54.20
47706;BME280;33471;52.104;1.318;2022-11-28T01:47:33;100427.12;;;13.42;51.72
47706;BME280;33471;52.104;1.318;2022-11-28T01:50:03;100431.49;;;12.58;53.18
47706;BME280;33471;52.104;1.318;2022-11-28T01:52:30;100427.05;;;14.03;49.38
47706;BME280;33471;52.104;1.318;2022-11-28T01:54:59;100425.82;;;13.81;50.82
47706;BME280;33471;52.104;1.318;2022-11-28T01:57:28;100421.19;;;14.14;49.36
47706;BME280;33471;52.104;1.318;2022-11-28T01:59:59;100412.97;;;14.08;49.29
47706;BME280;33471;52.104;1.318;2022-11-28T02:02:32;100408.70;;;14.32;48.89
47706;BME280;33471;52.104;1.318;2022-11-28T02:05:00;100401.41;;;14.58;48.90
47706;BME280;33471;52.104;1.318;2022-11-28T02:07:27;100400.42;;;13.47;49.64
47706;BME280;33471;52.104;1.318;2022-11-28T02:09:55;100397.92;;;14.62;48.31
47706;BME280;33471;52.104;1.318;2022-11-28T02:12:33;100395.44;;;14.77;47.71
47706;BME280;33471;52.104;1.318;2022-11-28T02:15:19;100393.74;;;14.42;48.19
47706;BME280;33471;52.104;1.318;2022-11-28T02:18:05;100389.05;;;14.57;48.04
47706;BME280;33471;52.104;1.318;2022-11-28T02:20:54;100390.98;;;14.23;48.14
47706;BME280;33471;52.104;1.318;2022-11-28T02:23:31;100389.31;;;13.46;48.76
47706;BME280;33471;52.104;1.318;2022-11-28T02:26:28;100397.18;;;13.56;49.40
47706;BME280;33471;52.104;1.318;2022-11-28T02:29:26;100408.52;;;13.17;50.63
47706;BME280;33471;52.104;1.318;2022-11-28T02:32:19;100406.44;;;13.22;50.00
47706;BME280;33471;52.104;1.318;2022-11-28T02:34:55;100403.91;;;13.64;49.19
47706;BME280;33471;52.104;1.318;2022-11-28T02:37:31;100396.57;;;13.55;48.71
47706;BME280;33471;52.104;1.318;2022-11-28T02:40:07;100386.95;;;14.33;48.36
47706;BME280;33471;52.104;1.318;2022-11-28T02:42:44;100382.02;;;13.90;47.96
47706;BME280;33471;52.104;1.318;2022-11-28T02:45:22;100381.76;;;13.23;48.01
47706;BME280;33471;52.104;1.318;2022-11-28T02:47:57;100386.40;;;13.78;47.56
47706;BME280;33471;52.104;1.318;2022-11-28T02:50:31;100381.53;;;14.19;47.32
47706;BME280;33471;52.104;1.318;2022-11-28T02:53:04;100380.94;;;13.52;47.90
47706;BME280;33471;52.104;1.318;2022-11-28T02:55:32;100378.88;;;13.30;47.80
47706;BME280;33471;52.104;1.318;2022-11-28T02:58:02;100377.53;;;13.65;47.71
47706;BME280;33471;52.104;1.318;2022-11-28T03:00:31;100381.93;;;13.40;47.56
47706;BME280;33471;52.104;1.318;2022-11-28T03:03:18;100381.74;;;13.57;47.45
47706;BME280;33471;52.104;1.318;2022-11-28T03:05:57;100384.70;;;13.24;47.48
47706;BME280;33471;52.104;1.318;2022-11-28T03:08:36;100383.20;;;12.97;47.51
47706;BME280;33471;52.104;1.318;2022-11-28T03:11:15;100377.43;;;13.40;47.44
47706;BME280;33471;52.104;1.318;2022-11-28T03:13:52;100382.02;;;13.08;47.49
47706;BME280;33471;52.104;1.318;2022-11-28T03:16:27;100389.72;;;13.22;47.46
47706;BME280;33471;52.104;1.318;2022-11-28T03:19:03;100393.71;;;13.13;47.53
47706;BME280;33471;52.104;1.318;2022-11-28T03:21:39;100396.11;;;12.95;47.68
47706;BME280;33471;52.104;1.318;2022-11-28T03:24:14;100392.45;;;12.90;47.62
47706;BME280;33471;52.104;1.318;2022-11-28T03:26:50;100387.97;;;12.87;47.71
47706;BME280;33471;52.104;1.318;2022-11-28T03:29:22;100383.08;;;12.16;47.95
47706;BME280;33471;52.104;1.318;2022-11-28T03:31:55;100386.56;;;12.95;47.86
47706;BME280;33471;52.104;1.318;2022-11-28T03:34:25;100392.20;;;12.65;47.93
47706;BME280;33471;52.104;1.318;2022-11-28T03:36:58;100399.65;;;13.18;48.21
47706;BME280;33471;52.104;1.318;2022-11-28T03:39:30;100409.47;;;12.48;49.37
47706;BME280;33471;52.104;1.318;2022-11-28T03:42:02;100413.17;;;12.21;50.95
47706;BME280;33471;52.104;1.318;2022-11-28T03:44:34;100419.17;;;12.76;50.89
47706;BME280;33471;52.104;1.318;2022-11-28T03:47:04;100421.62;;;12.69;50.63
47706;BME280;33471;52.104;1.318;2022-11-28T03:49:38;100425.43;;;11.77;52.35
47706;BME280;33471;52.104;1.318;2022-11-28T03:52:07;100425.73;;;12.58;51.49
47706;BME280;33471;52.104;1.318;2022-11-28T03:54:45;100433.23;;;12.54;51.07
47706;BME280;33471;52.104;1.318;2022-11-28T03:57:20;100431.68;;;11.49;52.79
47706;BME280;33471;52.104;1.318;2022-11-28T03:59:50;100429.47;;;11.46;54.18
47706;BME280;33471;52.104;1.318;2022-11-28T04:02:22;100428.44;;;10.67;54.63
47706;BME280;33471;52.104;1.318;2022-11-28T04:04:58;100430.82;;;11.93;53.47
47706;BME280;33471;52.104;1.318;2022-11-28T04:07:33;100425.98;;;11.84;52.80
47706;BME280;33471;52.104;1.318;2022-11-28T04:10:08;100424.87;;;11.39;52.95
47706;BME280;33471;52.104;1.318;2022-11-28T04:12:48;100416.68;;;12.21;51.90
47706;BME280;33471;52.104;1.318;2022-11-28T04:15:23;100427.47;;;12.10;51.36
47706;BME280;33471;52.104;1.318;2022-11-28T04:17:58;100427.99;;;12.34;51.97
47706;BME280;33471;52.104;1.318;2022-11-28T04:20:31;100431.74;;;11.28;52.50
47706;BME280;33471;52.104;1.318;2022-11-28T04:23:06;100436.06;;;11.73;52.57
47706;BME280;33471;52.104;1.318;2022-11-28T04:25:37;100437.04;;;11.61;51.91
47706;BME280;33471;52.104;1.318;2022-11-28T04:28:12;100441.30;;;12.29;51.29
47706;BME280;33471;52.104;1.318;2022-11-28T04:30:43;100446.22;;;11.19;53.01
47706;BME280;33471;52.104;1.318;2022-11-28T04:33:13;100449.60;;;11.70;52.26
47706;BME280;33471;52.104;1.318;2022-11-28T04:35:46;100445.56;;;12.22;51.17
47706;BME280;33471;52.104;1.318;2022-11-28T04:38:15;100451.08;;;11.19;52.20
47706;BME280;33471;52.104;1.318;2022-11-28T04:40:48;100452.71;;;12.25;50.66
47706;BME280;33471;52.104;1.318;2022-11-28T04:43:21;100451.60;;;11.82;50.71
47706;BME280;33471;52.104;1.318;2022-11-28T04:45:55;100447.35;;;12.54;50.33
47706;BME280;33471;52.104;1.318;2022-11-28T04:48:25;100447.47;;;11.68;51.80
47706;BME280;33471;52.104;1.318;2022-11-28T04:50:58;100443.69;;;12.04;50.94
47706;BME280;33471;52.104;1.318;2022-11-28T04:53:31;100439.89;;;12.52;50.11
47706;BME280;33471;52.104;1.318;2022-11-28T04:56:03;100435.01;;;13.08;49.00
47706;BME280;33471;52.104;1.318;2022-11-28T04:58:35;100435.85;;;13.28;48.61
47706;BME280;33471;52.104;1.318;2022-11-28T05:01:07;100432.25;;;11.75;50.78
47706;BME280;33471;52.104;1.318;2022-11-28T05:03:36;100441.98;;;12.71;49.41
47706;BME280;33471;52.104;1.318;2022-11-28T05:06:04;100447.31;;;12.06;50.47
47706;BME280;33471;52.104;1.318;2022-11-28T05:08:32;100448.40;;;12.67;49.67
47706;BME280;33471;52.104;1.318;2022-11-28T05:10:59;100452.56;;;13.16;48.77
47706;BME280;33471;52.104;1.318;2022-11-28T05:13:29;100446.98;;;11.80;49.33
47706;BME280;33471;52.104;1.318;2022-11-28T05:15:59;100445.92;;;13.00;48.34
47706;BME280;33471;52.104;1.318;2022-11-28T05:18:27;100444.79;;;12.34;49.80
47706;BME280;33471;52.104;1.318;2022-11-28T05:20:57;100447.36;;;10.48;51.01
47706;BME280;33471;52.104;1.318;2022-11-28T05:23:24;100448.36;;;11.79;48.62
47706;BME280;33471;52.104;1.318;2022-11-28T05:25:51;100449.50;;;11.69;49.23
47706;BME280;33471;52.104;1.318;2022-11-28T05:28:18;100451.00;;;10.21;51.38
47706;BME280;33471;52.104;1.318;2022-11-28T05:30:55;100449.87;;;11.68;50.96
47706;BME280;33471;52.104;1.318;2022-11-28T05:33:23;100449.08;;;11.07;52.67
47706;BME280;33471;52.104;1.318;2022-11-28T05:35:50;100450.74;;;10.81;52.73
47706;BME280;33471;52.104;1.318;2022-11-28T05:38:17;100445.51;;;11.93;50.63
47706;BME280;33471;52.104;1.318;2022-11-28T05:40:45;100456.77;;;10.80;53.10
47706;BME280;33471;52.104;1.318;2022-11-28T05:43:12;100462.20;;;9.76;55.03
47706;BME280;33471;52.104;1.318;2022-11-28T05:45:40;100464.81;;;9.63;56.53
47706;BME280;33471;52.104;1.318;2022-11-28T05:48:08;100469.28;;;9.18;57.34
47706;BME280;33471;52.104;1.318;2022-11-28T05:50:37;100465.52;;;9.83;55.78
47706;BME280;33471;52.104;1.318;2022-11-28T05:53:05;100471.92;;;10.05;55.68
47706;BME280;33471;52.104;1.318;2022-11-28T05:55:33;100472.59;;;9.98;54.50
47706;BME280;33471;52.104;1.318;2022-11-28T05:58:00;100470.97;;;10.94;53.43
47706;BME280;33471;52.104;1.318;2022-11-28T06:00:27;100471.43;;;10.55;53.36
47706;BME280;33471;52.104;1.318;2022-11-28T06:02:55;100483.64;;;9.26;56.82
47706;BME280;33471;52.104;1.318;2022-11-28T06:05:22;100480.79;;;10.43;54.47
47706;BME280;33471;52.104;1.318;2022-11-28T06:07:50;100475.75;;;10.10;54.65
47706;BME280;33471;52.104;1.318;2022-11-28T06:10:17;100474.13;;;10.74;52.70
47706;BME280;33471;52.104;1.318;2022-11-28T06:12:44;100471.12;;;11.43;52.29
47706;BME280;33471;52.104;1.318;2022-11-28T06:15:12;100478.04;;;11.27;52.81
47706;BME280;33471;52.104;1.318;2022-11-28T06:17:39;100474.30;;;11.88;51.30
47706;BME280;33471;52.104;1.318;2022-11-28T06:20:07;100471.60;;;11.90;50.93
47706;BME280;33471;52.104;1.318;2022-11-28T06:22:34;100470.79;;;11.75;50.70
47706;BME280;33471;52.104;1.318;2022-11-28T06:25:02;100473.29;;;12.30;49.30
47706;BME280;33471;52.104;1.318;2022-11-28T06:27:29;100479.87;;;12.53;48.84
47706;BME280;33471;52.104;1.318;2022-11-28T06:29:57;100481.09;;;12.31;49.49
47706;BME280;33471;52.104;1.318;2022-11-28T06:32:24;100484.89;;;11.48;50.14
47706;BME280;33471;52.104;1.318;2022-11-28T06:34:52;100483.89;;;12.18;49.87
47706;BME280;33471;52.104;1.318;2022-11-28T06:37:19;100478.89;;;11.99;49.85
47706;BME280;33471;52.104;1.318;2022-11-28T06:39:46;100485.31;;;11.32;51.10
47706;BME280;33471;52.104;1.318;2022-11-28T06:42:14;100478.43;;;11.62;49.90
47706;BME280;33471;52.104;1.318;2022-11-28T06:44:42;100479.62;;;12.29;49.45
47706;BME280;33471;52.104;1.318;2022-11-28T06:47:10;100477.20;;;12.35;49.47
47706;BME280;33471;52.104;1.318;2022-11-28T06:49:37;100479.50;;;12.20;49.72
47706;BME280;33471;52.104;1.318;2022-11-28T06:52:04;100485.87;;;12.32;49.54
47706;BME280;33471;52.104;1.318;2022-11-28T06:54:31;100488.48;;;11.42;51.20
47706;BME280;33471;52.104;1.318;2022-11-28T06:56:59;100487.14;;;11.60;51.91
47706;BME280;33471;52.104;1.318;2022-11-28T06:59:25;100487.00;;;11.58;50.29
47706;BME280;33471;52.104;1.318;2022-11-28T07:01:53;100487.33;;;12.39;49.71
47706;BME280;33471;52.104;1.318;2022-11-28T07:04:20;100491.59;;;10.90;51.44
47706;BME280;33471;52.104;1.318;2022-11-28T07:06:47;100487.20;;;12.14;50.50
47706;BME280;33471;52.104;1.318;2022-11-28T07:09:14;100484.01;;;11.34;50.89
47706;BME280;33471;52.104;1.318;2022-11-28T07:11:42;100482.52;;;11.71;50.53
47706;BME280;33471;52.104;1.318;2022-11-28T07:14:10;100483.51;;;12.13;50.50
47706;BME280;33471;52.104;1.318;2022-11-28T07:16:38;100486.47;;;12.15;50.31
47706;BME280;33471;52.104;1.318;2022-11-28T07:19:05;100487.99;;;11.93;50.88
47706;BME280;33471;52.104;1.318;2022-11-28T07:21:32;100492.15;;;11.47;50.32
47706;BME280;33471;52.104;1.318;2022-11-28T07:24:00;100492.59;;;10.39;49.92
47706;BME280;33471;52.104;1.318;2022-11-28T07:26:28;100491.73;;;11.93;46.95
47706;BME280;33471;52.104;1.318;2022-11-28T07:28:55;100490.70;;;12.69;47.91
47706;BME280;33471;52.104;1.318;2022-11-28T07:31:24;100492.72;;;11.55;49.28
47706;BME280;33471;52.104;1.318;2022-11-28T07:33:52;100495.71;;;11.80;49.93
47706;BME280;33471;52.104;1.318;2022-11-28T07:36:22;100497.73;;;11.88;49.41
47706;BME280;33471;52.104;1.318;2022-11-28T07:38:52;100502.54;;;11.81;50.48
47706;BME280;33471;52.104;1.318;2022-11-28T07:41:20;100499.35;;;12.14;49.86
47706;BME280;33471;52.104;1.318;2022-11-28T07:43:48;100505.89;;;11.60;51.33
47706;BME280;33471;52.104;1.318;2022-11-28T07:46:18;100500.61;;;11.98;50.23
47706;BME280;33471;52.104;1.318;2022-11-28T07:48:47;100505.65;;;11.84;50.61
47706;BME280;33471;52.104;1.318;2022-11-28T07:51:16;100503.40;;;11.97;49.96
47706;BME280;33471;52.104;1.318;2022-11-28T07:53:44;100506.07;;;11.01;50.64
47706;BME280;33471;52.104;1.318;2022-11-28T07:56:13;100511.30;;;10.74;52.69
47706;BME280;33471;52.104;1.318;2022-11-28T07:58:43;100510.98;;;11.82;50.83
47706;BME280;33471;52.104;1.318;2022-11-28T08:01:12;100514.32;;;12.42;49.64
47706;BME280;33471;52.104;1.318;2022-11-28T08:03:40;100517.49;;;10.70;51.95
47706;BME280;33471;52.104;1.318;2022-11-28T08:06:08;100513.67;;;11.97;50.60
47706;BME280;33471;52.104;1.318;2022-11-28T08:08:36;100512.98;;;11.68;50.29
47706;BME280;33471;52.104;1.318;2022-11-28T08:11:05;100515.36;;;12.16;49.94
47706;BME280;33471;52.104;1.318;2022-11-28T08:13:33;100516.67;;;12.59;48.38
47706;BME280;33471;52.104;1.318;2022-11-28T08:16:03;100516.67;;;12.75;48.50
47706;BME280;33471;52.104;1.318;2022-11-28T08:18:30;100516.23;;;12.04;48.35
47706;BME280;33471;52.104;1.318;2022-11-28T08:21:03;100515.46;;;12.99;48.22
47706;BME280;33471;52.104;1.318;2022-11-28T08:23:32;100519.44;;;12.02;48.42
47706;BME280;33471;52.104;1.318;2022-11-28T08:26:00;100517.52;;;12.62;48.79
47706;BME280;33471;52.104;1.318;2022-11-28T08:28:28;100514.79;;;11.74;48.46
47706;BME280;33471;52.104;1.318;2022-11-28T08:30:55;100515.13;;;12.81;48.55
47706;BME280;33471;52.104;1.318;2022-11-28T08:33:23;100512.56;;;12.23;48.21
47706;BME280;33471;52.104;1.318;2022-11-28T08:35:51;100515.10;;;12.10;49.21
47706;BME280;33471;52.104;1.318;2022-11-28T08:38:20;100512.24;;;11.79;50.18
47706;BME280;33471;52.104;1.318;2022-11-28T08:40:47;100505.29;;;11.80;49.98
47706;BME280;33471;52.104;1.318;2022-11-28T08:43:14;100509.46;;;11.22;50.82
47706;BME280;33471;52.104;1.318;2022-11-28T08:45:42;100515.33;;;10.09;52.85
47706;BME280;33471;52.104;1.318;2022-11-28T08:48:10;100522.13;;;11.96;49.42
47706;BME280;33471;52.104;1.318;2022-11-28T08:50:37;100524.77;;;12.24;48.70
47706;BME280;33471;52.104;1.318;2022-11-28T08:53:05;100525.11;;;11.95;49.21
47706;BME280;33471;52.104;1.318;2022-11-28T08:55:32;100522.23;;;11.75;48.59
47706;BME280;33471;52.104;1.318;2022-11-28T08:57:59;100519.52;;;12.85;47.59
47706;BME280;33471;52.104;1.318;2022-11-28T09:00:27;100518.45;;;12.10;47.64
47706;BME280;33471;52.104;1.318;2022-11-28T09:02:55;100518.32;;;12.66;48.36
47706;BME280;33471;52.104;1.318;2022-11-28T09:05:22;100517.78;;;12.73;47.22
47706;BME280;33471;52.104;1.318;2022-11-28T09:07:49;100519.69;;;12.56;47.87
47706;BME280;33471;52.104;1.318;2022-11-28T09:10:21;100521.39;;;12.51;46.81
47706;BME280;33471;52.104;1.318;2022-11-28T09:12:49;100524.83;;;13.00;46.19
47706;BME280;33471;52.104;1.318;2022-11-28T09:15:17;100523.03;;;12.11;48.00
47706;BME280;33471;52.104;1.318;2022-11-28T09:17:45;100523.82;;;12.79;47.12
47706;BME280;33471;52.104;1.318;2022-11-28T09:20:12;100524.93;;;13.63;46.24
47706;BME280;33471;52.104;1.318;2022-11-28T09:22:39;100526.40;;;12.71;46.97
47706;BME280;33471;52.104;1.318;2022-11-28T09:25:07;100534.33;;;13.45;46.24
47706;BME280;33471;52.104;1.318;2022-11-28T09:27:35;100536.63;;;13.77;45.96
47706;BME280;33471;52.104;1.318;2022-11-28T09:30:03;100530.23;;;12.78;47.04
47706;BME280;33471;52.104;1.318;2022-11-28T09:32:31;100533.52;;;12.93;46.07
47706;BME280;33471;52.104;1.318;2022-11-28T09:34:58;100540.44;;;12.83;46.95
47706;BME280;33471;52.104;1.318;2022-11-28T09:37:27;100542.15;;;12.83;46.61
47706;BME280;33471;52.104;1.318;2022-11-28T09:39:54;100544.48;;;13.83;46.18
47706;BME280;33471;52.104;1.318;2022-11-28T09:42:27;100543.20;;;12.90;46.50
47706;BME280;33471;52.104;1.318;2022-11-28T09:44:59;100539.27;;;13.49;46.61
47706;BME280;33471;52.104;1.318;2022-11-28T09:47:30;100537.15;;;13.12;46.69
47706;BME280;33471;52.104;1.318;2022-11-28T09:49:59;100535.16;;;12.72;47.65
47706;BME280;33471;52.104;1.318;2022-11-28T09:52:35;100540.75;;;10.07;50.77
47706;BME280;33471;52.104;1.318;2022-11-28T09:55:14;100541.93;;;12.40;47.91
47706;BME280;33471;52.104;1.318;2022-11-28T09:57:47;100542.12;;;12.95;47.09
47706;BME280;33471;52.104;1.318;2022-11-28T10:00:17;100542.49;;;13.21;46.73
47706;BME280;33471;52.104;1.318;2022-11-28T10:02:55;100545.23;;;12.90;47.03
47706;BME280;33471;52.104;1.318;2022-11-28T10:05:32;100545.66;;;12.52;47.57
47706;BME280;33471;52.104;1.318;2022-11-28T10:08:16;100545.88;;;13.37;47.45
47706;BME280;33471;52.104;1.318;2022-11-28T10:10:56;100544.45;;;13.48;47.62
47706;BME280;33471;52.104;1.318;2022-11-28T10:13:32;100546.77;;;12.76;47.42
47706;BME280;33471;52.104;1.318;2022-11-28T10:16:08;100548.06;;;12.86;47.67
47706;BME280;33471;52.104;1.318;2022-11-28T10:18:42;100551.84;;;13.63;47.11
47706;BME280;33471;52.104;1.318;2022-11-28T10:21:23;100552.30;;;13.80;46.72
47706;BME280;33471;52.104;1.318;2022-11-28T10:23:55;100553.68;;;13.53;46.57
47706;BME280;33471;52.104;1.318;2022-11-28T10:26:29;100555.94;;;13.43;46.45
47706;BME280;33471;52.104;1.318;2022-11-28T10:29:01;100560.47;;;13.70;46.85
47706;BME280;33471;52.104;1.318;2022-11-28T10:31:32;100568.67;;;13.70;45.57
47706;BME280;33471;52.104;1.318;2022-11-28T10:34:05;100572.83;;;13.58;46.82
47706;BME280;33471;52.104;1.318;2022-11-28T10:36:49;100572.18;;;12.98;47.62
47706;BME280;33471;52.104;1.318;2022-11-28T10:39:18;100567.13;;;13.07;47.72
47706;BME280;33471;52.104;1.318;2022-11-28T10:41:51;100563.78;;;11.86;48.64
47706;BME280;33471;52.104;1.318;2022-11-28T10:44:26;100558.19;;;12.57;48.37
47706;BME280;33471;52.104;1.318;2022-11-28T10:47:05;100562.90;;;12.97;47.27
47706;BME280;33471;52.104;1.318;2022-11-28T10:49:46;100564.96;;;12.84;47.01
47706;BME280;33471;52.104;1.318;2022-11-28T10:52:22;100562.58;;;13.13;47.55
47706;BME280;33471;52.104;1.318;2022-11-28T10:55:06;100560.52;;;13.42;46.47
47706;BME280;33471;52.104;1.318;2022-11-28T10:57:41;100560.94;;;13.65;46.12
47706;BME280;33471;52.104;1.318;2022-11-28T11:00:14;100562.18;;;13.47;45.96
47706;BME280;33471;52.104;1.318;2022-11-28T11:02:44;100563.73;;;12.29;47.31
47706;BME280;33471;52.104;1.318;2022-11-28T11:05:13;100562.20;;;13.27;46.81
47706;BME280;33471;52.104;1.318;2022-11-28T11:07:45;100565.90;;;13.45;46.39
47706;BME280;33471;52.104;1.318;2022-11-28T11:10:16;100564.91;;;12.50;48.36
47706;BME280;33471;52.104;1.318;2022-11-28T11:12:44;100570.90;;;14.29;45.71
47706;BME280;33471;52.104;1.318;2022-11-28T11:15:19;100565.43;;;14.87;45.64
47706;BME280;33471;52.104;1.318;2022-11-28T11:17:47;100562.05;;;15.03;45.70
47706;BME280;33471;52.104;1.318;2022-11-28T11:20:28;100556.28;;;15.02;45.90
47706;BME280;33471;52.104;1.318;2022-11-28T11:22:57;100557.37;;;14.97;45.63
47706;BME280;33471;52.104;1.318;2022-11-28T11:25:27;100553.54;;;14.29;46.49
47706;BME280;33471;52.104;1.318;2022-11-28T11:27:56;100541.25;;;14.91;44.50
47706;BME280;33471;52.104;1.318;2022-11-28T11:30:27;100546.43;;;13.72;45.18
47706;BME280;33471;52.104;1.318;2022-11-28T11:32:57;100537.56;;;15.28;44.48
47706;BME280;33471;52.104;1.318;2022-11-28T11:35:27;100537.65;;;14.13;45.04
47706;BME280;33471;52.104;1.318;2022-11-28T11:38:14;100537.58;;;14.48;45.05
47706;BME280;33471;52.104;1.318;2022-11-28T11:40:42;100535.33;;;14.54;44.75
47706;BME280;33471;52.104;1.318;2022-11-28T11:43:23;100536.24;;;14.67;44.67
47706;BME280;33471;52.104;1.318;2022-11-28T11:46:04;100530.91;;;15.23;44.00
47706;BME280;33471;52.104;1.318;2022-11-28T11:48:35;100535.39;;;14.53;44.01
47706;BME280;33471;52.104;1.318;2022-11-28T11:51:03;100532.73;;;14.59;44.55
47706;BME280;33471;52.104;1.318;2022-11-28T11:53:31;100533.67;;;14.35;44.85
47706;BME280;33471;52.104;1.318;2022-11-28T11:56:01;100532.07;;;14.62;44.44
47706;BME280;33471;52.104;1.318;2022-11-28T11:58:35;100530.79;;;14.88;43.61
47706;BME280;33471;52.104;1.318;2022-11-28T12:01:06;100530.90;;;15.48;43.81
47706;BME280;33471;52.104;1.318;2022-11-28T12:03:39;100538.56;;;13.95;45.91
47706;BME280;33471;52.104;1.318;2022-11-28T12:06:12;100542.45;;;14.76;45.20
47706;BME280;33471;52.104;1.318;2022-11-28T12:08:46;100543.98;;;13.62;45.83
47706;BME280;33471;52.104;1.318;2022-11-28T12:11:18;100544.10;;;14.04;45.72
47706;BME280;33471;52.104;1.318;2022-11-28T12:13:48;100550.65;;;14.75;45.60
47706;BME280;33471;52.104;1.318;2022-11-28T12:16:31;100553.85;;;14.78;46.02
47706;BME280;33471;52.104;1.318;2022-11-28T12:19:15;100559.29;;;14.64;46.55
47706;BME280;33471;52.104;1.318;2022-11-28T12:22:01;100557.65;;;14.56;46.53
47706;BME280;33471;52.104;1.318;2022-11-28T12:24:39;100551.28;;;14.04;47.17
47706;BME280;33471;52.104;1.318;2022-11-28T12:27:25;100549.09;;;14.48;47.14
47706;BME280;33471;52.104;1.318;2022-11-28T12:30:08;100546.33;;;14.67;
47706;BME280;33471;52.104;1.318;2022-11-28T12:32:50;100545.90;;;14.49;46.91
47706;BME280;33471;52.104;1.318;2022-11-28T12:35:29;100545.44;;;14.88;46.44
47706;BME280;33471;52.104;1.318;2022-11-28T12:38:09;100546.60;;;15.18;46.81
47706;BME280;33471;52.104;1.318;2022-11-28T12:40:49;100549.60;;;14.64;46.85
47706;BME280;33471;52.104;1.318;2022-11-28T12:43:31;100551.61;;;14.76;47.19
47706;BME280;33471;52.104;1.318;2022-11-28T12:46:11;100547.12;;;15.21;47.22
47706;BME280;33471;52.104;1.318;2022-11-28T12:48:47;100547.09;;;15.29;47.30
47706;BME280;33471;52.104;1.318;2022-11-28T12:51:24;100546.59;;;15.08;47.23
47706;BME280;33471;52.104;1.318;2022-11-28T12:54:05;100546.62;;;15.11;47.01
47706;BME280;33471;52.104;1.318;2022-11-28T12:56:45;100550.26;;;14.73;47.19
47706;BME280;33471;52.104;1.318;2022-11-28T12:59:23;100549.02;;;14.86;48.27
47706;BME280;33471;52.104;1.318;2022-11-28T13:02:00;100555.73;;;14.75;48.13
47706;BME280;33471;52.104;1.318;2022-11-28T13:04:46;100555.72;;;14.46;48.49
47706;BME280;33471;52.104;1.318;2022-11-28T13:07:23;100553.13;;;14.82;48.62
47706;BME280;33471;52.104;1.318;2022-11-28T13:10:00;100549.76;;;15.28;48.28
47706;BME280;33471;52.104;1.318;2022-11-28T13:12:42;100548.44;;;15.04;47.60